createdAt,value
2018-09-17T00:00:52.789Z,1006.46
2018-09-17T00:01:52.790Z,1006.49
2018-09-17T00:02:52.778Z,1006.52
2018-09-17T00:03:52.760Z,1006.51
2018-09-17T00:04:53.109Z,1006.55
2018-09-17T00:05:52.779Z,1006.53
2018-09-17T00:06:52.732Z,1006.55
2018-09-17T00:07:52.717Z,1006.53
2018-09-17T00:08:52.706Z,1006.55
2018-09-17T00:09:52.698Z,1006.54
2018-09-17T00:10:52.694Z,1006.55
2018-09-17T00:11:52.672Z,1006.58
2018-09-17T00:12:52.654Z,1006.55
2018-09-17T00:13:52.642Z,1006.56
2018-09-17T00:14:52.702Z,1006.59
2018-09-17T00:15:52.623Z,1006.57
2018-09-17T00:16:52.604Z,1006.54
2018-09-17T00:17:52.607Z,1006.51
2018-09-17T00:18:52.592Z,1006.49
2018-09-17T00:19:52.575Z,1006.45
2018-09-17T00:20:52.595Z,1006.45
2018-09-17T00:21:52.553Z,1006.46
2018-09-17T00:22:52.549Z,1006.48
2018-09-17T00:23:52.531Z,1006.46
2018-09-17T00:24:52.532Z,1006.44
2018-09-17T00:25:52.537Z,1006.36
2018-09-17T00:26:52.495Z,1006.40
2018-09-17T00:27:52.488Z,1006.32
2018-09-17T00:28:52.477Z,1006.32
2018-09-17T00:29:52.462Z,1006.29
2018-09-17T00:30:52.514Z,1006.29
2018-09-17T00:31:52.431Z,1006.28
2018-09-17T00:32:52.428Z,1006.27
2018-09-17T00:33:52.413Z,1006.26
2018-09-17T00:34:52.408Z,1006.25
2018-09-17T00:35:52.389Z,1006.23
2018-09-17T00:36:52.400Z,1006.22
2018-09-17T00:37:52.371Z,1006.26
2018-09-17T00:38:52.361Z,1006.24
2018-09-17T00:39:52.344Z,1006.23
2018-09-17T00:40:52.364Z,1006.26
2018-09-17T00:41:52.318Z,1006.23
2018-09-17T00:42:52.311Z,1006.23
2018-09-17T00:43:52.296Z,1006.27
2018-09-17T00:44:52.274Z,1006.28
2018-09-17T00:45:52.277Z,1006.29
2018-09-17T00:46:52.292Z,1006.27
2018-09-17T00:47:52.254Z,1006.31
2018-09-17T00:48:52.241Z,1006.30
2018-09-17T00:49:52.217Z,1006.31
2018-09-17T00:50:52.261Z,1006.32
2018-09-17T00:51:52.203Z,1006.34
2018-09-17T00:52:52.269Z,1006.38
2018-09-17T00:53:52.178Z,1006.37
2018-09-17T00:54:52.171Z,1006.39
2018-09-17T00:55:52.152Z,1006.34
2018-09-17T00:56:52.130Z,1006.36
2018-09-17T00:57:52.217Z,1006.35
2018-09-17T00:58:52.156Z,1006.34
2018-09-17T00:59:52.112Z,1006.36
2018-09-17T01:00:52.095Z,1006.36
2018-09-17T01:01:52.085Z,1006.34
2018-09-17T01:02:52.069Z,1006.33
2018-09-17T01:03:52.082Z,1006.33
2018-09-17T01:04:52.046Z,1006.37
2018-09-17T01:05:52.030Z,1006.37
2018-09-17T01:06:52.022Z,1006.38
2018-09-17T01:07:52.016Z,1006.41
2018-09-17T01:08:52.028Z,1006.36
2018-09-17T01:09:51.988Z,1006.33
2018-09-17T01:10:51.984Z,1006.29
2018-09-17T01:11:51.969Z,1006.28
2018-09-17T01:12:51.948Z,1006.25
2018-09-17T01:13:51.936Z,1006.28
2018-09-17T01:14:51.932Z,1006.27
2018-09-17T01:15:51.908Z,1006.26
2018-09-17T01:16:51.908Z,1006.27
2018-09-17T01:17:51.884Z,1006.28
2018-09-17T01:18:51.869Z,1006.29
2018-09-17T01:19:51.865Z,1006.30
2018-09-17T01:20:51.855Z,1006.26
2018-09-17T01:21:51.853Z,1006.29
2018-09-17T01:22:51.837Z,1006.28
2018-09-17T01:23:51.828Z,1006.27
2018-09-17T01:24:51.807Z,1006.33
2018-09-17T01:25:51.800Z,1006.33
2018-09-17T01:26:51.785Z,1006.28
2018-09-17T01:27:51.773Z,1006.34
2018-09-17T01:28:51.758Z,1006.32
2018-09-17T01:29:51.756Z,1006.33
2018-09-17T01:30:51.731Z,1006.32
2018-09-17T01:31:51.713Z,1006.30
2018-09-17T01:32:51.705Z,1006.33
2018-09-17T01:33:51.726Z,1006.31
2018-09-17T01:34:51.695Z,1006.31
2018-09-17T01:35:51.676Z,1006.28
2018-09-17T01:36:51.663Z,1006.35
2018-09-17T01:37:51.642Z,1006.30
2018-09-17T01:38:51.640Z,1006.31
2018-09-17T01:39:51.654Z,1006.29
2018-09-17T01:40:51.610Z,1006.31
2018-09-17T01:41:51.606Z,1006.25
2018-09-17T01:42:51.584Z,1006.22
2018-09-17T01:43:51.582Z,1006.20
2018-09-17T01:44:51.601Z,1006.15
2018-09-17T01:45:51.552Z,1006.14
2018-09-17T01:46:51.617Z,1006.12
2018-09-17T01:47:51.532Z,1006.09
2018-09-17T01:48:51.513Z,1006.07
2018-09-17T01:49:51.501Z,1006.10
2018-09-17T01:50:51.487Z,1006.10
2018-09-17T01:51:51.476Z,1006.11
2018-09-17T01:52:51.499Z,1006.10
2018-09-17T01:53:51.456Z,1006.06
2018-09-17T01:54:51.444Z,1006.07
2018-09-17T01:55:51.428Z,1006.09
2018-09-17T01:56:51.425Z,1006.11
2018-09-17T01:57:51.433Z,1006.17
2018-09-17T01:58:51.390Z,1006.21
2018-09-17T01:59:51.383Z,1006.23
2018-09-17T02:00:51.367Z,1006.22
2018-09-17T02:01:51.362Z,1006.18
2018-09-17T02:02:51.373Z,1006.16
2018-09-17T02:03:51.331Z,1006.13
2018-09-17T02:04:51.314Z,1006.10
2018-09-17T02:05:51.298Z,1006.10
2018-09-17T02:06:51.298Z,1006.09
2018-09-17T02:07:51.366Z,1006.10
2018-09-17T02:08:51.355Z,1006.10
2018-09-17T02:09:51.336Z,1006.09
2018-09-17T02:10:51.237Z,1006.08
2018-09-17T02:11:51.232Z,1006.10
2018-09-17T02:12:51.440Z,1006.07
2018-09-17T02:13:51.215Z,1006.05
2018-09-17T02:14:51.202Z,1006.02
2018-09-17T02:15:51.180Z,1006.03
2018-09-17T02:16:51.169Z,1006.05
2018-09-17T02:17:51.472Z,1006.04
2018-09-17T02:18:51.136Z,1006.07
2018-09-17T02:19:51.141Z,1006.05
2018-09-17T02:20:51.114Z,1006.04
2018-09-17T02:21:51.105Z,1006.07
2018-09-17T02:22:51.097Z,1006.09
2018-09-17T02:23:51.119Z,1006.12
2018-09-17T02:24:51.074Z,1006.10
2018-09-17T02:25:51.050Z,1006.10
2018-09-17T02:26:51.048Z,1006.14
2018-09-17T02:27:51.043Z,1006.11
2018-09-17T02:28:51.025Z,1006.11
2018-09-17T02:29:51.016Z,1006.08
2018-09-17T02:30:50.994Z,1006.07
2018-09-17T02:31:50.982Z,1006.06
2018-09-17T02:32:51.002Z,1006.10
2018-09-17T02:33:50.959Z,1006.14
2018-09-17T02:34:50.939Z,1006.16
2018-09-17T02:35:50.925Z,1006.22
2018-09-17T02:36:50.953Z,1006.23
2018-09-17T02:37:50.909Z,1006.22
2018-09-17T02:38:50.897Z,1006.21
2018-09-17T02:39:50.885Z,1006.23
2018-09-17T02:40:50.900Z,1006.23
2018-09-17T02:41:50.869Z,1006.24
2018-09-17T02:42:50.851Z,1006.24
2018-09-17T02:43:50.828Z,1006.21
2018-09-17T02:44:50.829Z,1006.19
2018-09-17T02:45:50.801Z,1006.21
2018-09-17T02:46:51.005Z,1006.19
2018-09-17T02:47:50.786Z,1006.24
2018-09-17T02:48:50.779Z,1006.19
2018-09-17T02:49:50.767Z,1006.18
2018-09-17T02:50:50.746Z,1006.18
2018-09-17T02:51:50.732Z,1006.22
2018-09-17T02:52:50.755Z,1006.23
2018-09-17T02:53:50.714Z,1006.24
2018-09-17T02:54:50.690Z,1006.25
2018-09-17T02:55:50.682Z,1006.32
2018-09-17T02:56:50.934Z,1006.32
2018-09-17T02:57:50.672Z,1006.34
2018-09-17T02:58:50.655Z,1006.31
2018-09-17T02:59:50.638Z,1006.28
2018-09-17T03:00:50.621Z,1006.30
2018-09-17T03:01:50.612Z,1006.25
2018-09-17T03:02:50.631Z,1006.29
2018-09-17T03:03:50.588Z,1006.24
2018-09-17T03:04:50.603Z,1006.30
2018-09-17T03:05:50.555Z,1006.29
2018-09-17T03:06:50.540Z,1006.31
2018-09-17T03:07:50.536Z,1006.30
2018-09-17T03:08:50.531Z,1006.32
2018-09-17T03:09:50.563Z,1006.30
2018-09-17T03:10:50.502Z,1006.30
2018-09-17T03:11:50.492Z,1006.34
2018-09-17T03:12:50.480Z,1006.34
2018-09-17T03:13:50.465Z,1006.33
2018-09-17T03:14:50.453Z,1006.29
2018-09-17T03:15:50.514Z,1006.36
2018-09-17T03:16:50.433Z,1006.33
2018-09-17T03:17:50.418Z,1006.35
2018-09-17T03:18:50.400Z,1006.37
2018-09-17T03:19:50.394Z,1006.37
2018-09-17T03:20:50.374Z,1006.37
2018-09-17T03:21:50.367Z,1006.40
2018-09-17T03:22:50.355Z,1006.42
2018-09-17T03:23:50.334Z,1006.42
2018-09-17T03:24:50.325Z,1006.43
2018-09-17T03:25:50.301Z,1006.44
2018-09-17T03:26:50.308Z,1006.40
2018-09-17T03:27:50.286Z,1006.39
2018-09-17T03:28:50.277Z,1006.41
2018-09-17T03:29:50.266Z,1006.39
2018-09-17T03:30:50.255Z,1006.35
2018-09-17T03:31:50.225Z,1006.35
2018-09-17T03:32:50.223Z,1006.39
2018-09-17T03:33:50.238Z,1006.35
2018-09-17T03:34:50.962Z,1006.36
2018-09-17T03:35:50.184Z,1006.34
2018-09-17T03:36:50.180Z,1006.32
2018-09-17T03:37:50.173Z,1006.31
2018-09-17T03:38:50.146Z,1006.30
2018-09-17T03:39:50.142Z,1006.30
2018-09-17T03:40:50.191Z,1006.29
2018-09-17T03:41:50.114Z,1006.30
2018-09-17T03:42:50.104Z,1006.30
2018-09-17T03:43:50.076Z,1006.30
2018-09-17T03:44:50.073Z,1006.32
2018-09-17T03:45:50.068Z,1006.30
2018-09-17T03:46:50.076Z,1006.27
2018-09-17T03:47:50.040Z,1006.28
2018-09-17T03:48:50.102Z,1006.28
2018-09-17T03:49:50.012Z,1006.27
2018-09-17T03:50:49.992Z,1006.29
2018-09-17T03:51:49.978Z,1006.29
2018-09-17T03:52:49.975Z,1006.24
2018-09-17T03:53:49.963Z,1006.25
2018-09-17T03:54:49.976Z,1006.27
2018-09-17T03:55:49.934Z,1006.25
2018-09-17T03:56:49.922Z,1006.28
2018-09-17T03:57:49.907Z,1006.26
2018-09-17T03:58:49.893Z,1006.26
2018-09-17T03:59:49.909Z,1006.25
2018-09-17T04:00:49.876Z,1006.24
2018-09-17T04:01:49.870Z,1006.22
2018-09-17T04:02:49.840Z,1006.23
2018-09-17T04:03:49.830Z,1006.19
2018-09-17T04:04:49.858Z,1006.19
2018-09-17T04:05:49.799Z,1006.19
2018-09-17T04:06:49.788Z,1006.20
2018-09-17T04:07:49.784Z,1006.18
2018-09-17T04:08:49.772Z,1006.21
2018-09-17T04:09:49.759Z,1006.23
2018-09-17T04:10:49.739Z,1006.23
2018-09-17T04:11:49.767Z,1006.21
2018-09-17T04:12:49.718Z,1006.21
2018-09-17T04:13:49.699Z,1006.22
2018-09-17T04:14:49.682Z,1006.21
2018-09-17T04:15:49.675Z,1006.24
2018-09-17T04:16:49.701Z,1006.20
2018-09-17T04:17:49.685Z,1006.20
2018-09-17T04:18:49.638Z,1006.21
2018-09-17T04:19:49.625Z,1006.18
2018-09-17T04:20:49.617Z,1006.22
2018-09-17T04:21:49.601Z,1006.17
2018-09-17T04:22:49.621Z,1006.15
2018-09-17T04:23:49.572Z,1006.19
2018-09-17T04:24:49.553Z,1006.17
2018-09-17T04:25:49.545Z,1006.17
2018-09-17T04:26:49.541Z,1006.18
2018-09-17T04:27:49.578Z,1006.19
2018-09-17T04:28:49.519Z,1006.23
2018-09-17T04:29:49.498Z,1006.24
2018-09-17T04:30:49.490Z,1006.29
2018-09-17T04:31:49.474Z,1006.29
2018-09-17T04:32:49.461Z,1006.29
2018-09-17T04:33:49.446Z,1006.30
2018-09-17T04:34:49.429Z,1006.36
2018-09-17T04:35:49.428Z,1006.34
2018-09-17T04:36:49.408Z,1006.38
2018-09-17T04:37:49.389Z,1006.37
2018-09-17T04:38:49.405Z,1006.39
2018-09-17T04:39:49.440Z,1006.40
2018-09-17T04:40:49.346Z,1006.40
2018-09-17T04:41:49.344Z,1006.43
2018-09-17T04:42:49.333Z,1006.44
2018-09-17T04:43:49.538Z,1006.43
2018-09-17T04:44:49.306Z,1006.43
2018-09-17T04:45:49.286Z,1006.44
2018-09-17T04:46:49.275Z,1006.45
2018-09-17T04:47:49.256Z,1006.44
2018-09-17T04:48:49.262Z,1006.44
2018-09-17T04:49:49.272Z,1006.44
2018-09-17T04:50:49.224Z,1006.45
2018-09-17T04:51:49.218Z,1006.48
2018-09-17T04:52:49.211Z,1006.47
2018-09-17T04:53:49.232Z,1006.43
2018-09-17T04:54:49.175Z,1006.46
2018-09-17T04:55:49.172Z,1006.49
2018-09-17T04:56:49.158Z,1006.49
2018-09-17T04:57:49.135Z,1006.49
2018-09-17T04:58:49.159Z,1006.49
2018-09-17T04:59:49.143Z,1006.46
2018-09-17T05:00:49.100Z,1006.45
2018-09-17T05:01:49.128Z,1006.40
2018-09-17T05:02:49.062Z,1006.45
2018-09-17T05:03:49.052Z,1006.43
2018-09-17T05:04:49.051Z,1006.47
2018-09-17T05:05:49.039Z,1006.46
2018-09-17T05:06:49.012Z,1006.52
2018-09-17T05:07:49.002Z,1006.51
2018-09-17T05:08:48.993Z,1006.52
2018-09-17T05:09:48.980Z,1006.50
2018-09-17T05:10:49.005Z,1006.49
2018-09-17T05:11:48.960Z,1006.49
2018-09-17T05:12:48.950Z,1006.48
2018-09-17T05:13:48.927Z,1006.48
2018-09-17T05:14:48.916Z,1006.52
2018-09-17T05:15:48.937Z,1006.52
2018-09-17T05:16:48.895Z,1006.52
2018-09-17T05:17:48.874Z,1006.52
2018-09-17T05:18:48.861Z,1006.54
2018-09-17T05:19:48.855Z,1006.58
2018-09-17T05:20:48.933Z,1006.56
2018-09-17T05:21:48.826Z,1006.58
2018-09-17T05:22:49.083Z,1006.56
2018-09-17T05:23:48.806Z,1006.59
2018-09-17T05:24:48.788Z,1006.58
2018-09-17T05:25:48.775Z,1006.57
2018-09-17T05:26:48.812Z,1006.53
2018-09-17T05:27:48.745Z,1006.56
2018-09-17T05:28:48.741Z,1006.59
2018-09-17T05:29:48.724Z,1006.57
2018-09-17T05:30:48.708Z,1006.57
2018-09-17T05:31:48.690Z,1006.57
2018-09-17T05:32:48.701Z,1006.61
2018-09-17T05:33:48.664Z,1006.62
2018-09-17T05:34:48.661Z,1006.61
2018-09-17T05:35:48.641Z,1006.60
2018-09-17T05:36:48.633Z,1006.61
2018-09-17T05:37:48.895Z,1006.63
2018-09-17T05:38:48.608Z,1006.64
2018-09-17T05:39:48.592Z,1006.63
2018-09-17T05:40:48.583Z,1006.64
2018-09-17T05:41:48.565Z,1006.68
2018-09-17T05:42:48.548Z,1006.66
2018-09-17T05:43:48.545Z,1006.61
2018-09-17T05:44:48.528Z,1006.63
2018-09-17T05:45:48.524Z,1006.61
2018-09-17T05:46:48.503Z,1006.59
2018-09-17T05:47:48.519Z,1006.60
2018-09-17T05:48:48.475Z,1006.61
2018-09-17T05:49:48.462Z,1006.53
2018-09-17T05:50:48.478Z,1006.52
2018-09-17T05:51:48.435Z,1006.55
2018-09-17T05:52:48.427Z,1006.49
2018-09-17T05:53:48.484Z,1006.52
2018-09-17T05:54:48.403Z,1006.52
2018-09-17T05:55:48.383Z,1006.56
2018-09-17T05:56:48.363Z,1006.55
2018-09-17T05:57:48.365Z,1006.56
2018-09-17T05:58:48.345Z,1006.58
2018-09-17T05:59:48.365Z,1006.57
2018-09-17T06:00:48.325Z,1006.55
2018-09-17T06:01:48.311Z,1006.57
2018-09-17T06:02:48.289Z,1006.57
2018-09-17T06:03:48.312Z,1006.57
2018-09-17T06:04:48.275Z,1006.59
2018-09-17T06:05:48.292Z,1006.64
2018-09-17T06:06:48.281Z,1006.65
2018-09-17T06:07:48.235Z,1006.67
2018-09-17T06:08:48.214Z,1006.70
2018-09-17T06:09:48.258Z,1006.71
2018-09-17T06:10:48.194Z,1006.71
2018-09-17T06:11:48.269Z,1006.73
2018-09-17T06:12:48.169Z,1006.72
2018-09-17T06:13:48.153Z,1006.73
2018-09-17T06:14:48.143Z,1006.76
2018-09-17T06:15:48.156Z,1006.82
2018-09-17T06:16:48.117Z,1006.83
2018-09-17T06:17:48.110Z,1006.86
2018-09-17T06:18:48.145Z,1006.86
2018-09-17T06:19:48.075Z,1006.89
2018-09-17T06:20:48.062Z,1006.89
2018-09-17T06:21:48.052Z,1006.85
2018-09-17T06:22:48.037Z,1006.89
2018-09-17T06:23:48.077Z,1006.89
2018-09-17T06:24:48.010Z,1006.89
2018-09-17T06:25:48.006Z,1006.96
2018-09-17T06:26:47.983Z,1006.96
2018-09-17T06:27:47.969Z,1006.97
2018-09-17T06:28:48.059Z,1006.96
2018-09-17T06:29:47.976Z,1006.99
2018-09-17T06:30:47.941Z,1006.97
2018-09-17T06:31:47.924Z,1006.98
2018-09-17T06:32:47.911Z,1006.99
2018-09-17T06:33:47.896Z,1006.99
2018-09-17T06:34:47.913Z,1007.02
2018-09-17T06:35:47.876Z,1007.03
2018-09-17T06:36:47.856Z,1007.02
2018-09-17T06:37:47.851Z,1007.05
2018-09-17T06:38:47.838Z,1007.04
2018-09-17T06:39:47.824Z,1007.09
2018-09-17T06:40:47.817Z,1007.14
2018-09-17T06:41:47.787Z,1007.10
2018-09-17T06:42:47.776Z,1007.12
2018-09-17T06:43:47.776Z,1007.16
2018-09-17T06:44:47.809Z,1007.16
2018-09-17T06:45:47.798Z,1007.14
2018-09-17T06:46:47.740Z,1007.14
2018-09-17T06:47:47.709Z,1007.12
2018-09-17T06:48:47.708Z,1007.12
2018-09-17T06:49:47.692Z,1007.14
2018-09-17T06:50:47.674Z,1007.15
2018-09-17T06:51:47.697Z,1007.17
2018-09-17T06:52:47.652Z,1007.18
2018-09-17T06:53:47.687Z,1007.16
2018-09-17T06:54:47.625Z,1007.14
2018-09-17T06:55:47.611Z,1007.14
2018-09-17T06:56:47.654Z,1007.18
2018-09-17T06:57:47.582Z,1007.13
2018-09-17T06:58:47.591Z,1007.15
2018-09-17T06:59:47.572Z,1007.18
2018-09-17T07:00:47.554Z,1007.17
2018-09-17T07:01:47.547Z,1007.19
2018-09-17T07:02:47.540Z,1007.16
2018-09-17T07:03:47.527Z,1007.19
2018-09-17T07:04:47.512Z,1007.19
2018-09-17T07:05:47.496Z,1007.14
2018-09-17T07:06:47.477Z,1007.10
2018-09-17T07:07:47.508Z,1007.08
2018-09-17T07:08:47.446Z,1007.09
2018-09-17T07:09:47.447Z,1007.07
2018-09-17T07:10:47.434Z,1007.05
2018-09-17T07:11:47.408Z,1007.05
2018-09-17T07:12:47.452Z,1007.06
2018-09-17T07:13:47.391Z,1007.09
2018-09-17T07:14:47.383Z,1007.08
2018-09-17T07:15:47.373Z,1007.12
2018-09-17T07:16:47.361Z,1007.10
2018-09-17T07:17:47.348Z,1007.14
2018-09-17T07:18:47.359Z,1007.16
2018-09-17T07:19:47.318Z,1007.16
2018-09-17T07:20:47.306Z,1007.17
2018-09-17T07:21:47.298Z,1007.18
2018-09-17T07:22:47.314Z,1007.14
2018-09-17T07:23:47.295Z,1007.15
2018-09-17T07:24:47.258Z,1007.09
2018-09-17T07:25:47.242Z,1007.11
2018-09-17T07:26:47.230Z,1007.10
2018-09-17T07:27:47.216Z,1007.12
2018-09-17T07:28:47.270Z,1007.12
2018-09-17T07:29:47.195Z,1007.11
2018-09-17T07:30:47.187Z,1007.10
2018-09-17T07:31:47.176Z,1007.07
2018-09-17T07:32:47.164Z,1007.07
2018-09-17T07:33:47.160Z,1007.03
2018-09-17T07:34:47.140Z,1006.99
2018-09-17T07:35:47.123Z,1007.00
2018-09-17T07:36:47.106Z,1006.96
2018-09-17T07:37:47.104Z,1007.00
2018-09-17T07:38:47.092Z,1006.96
2018-09-17T07:39:47.093Z,1006.97
2018-09-17T07:40:47.085Z,1007.01
2018-09-17T07:41:47.063Z,1007.03
2018-09-17T07:42:47.077Z,1007.03
2018-09-17T07:43:47.035Z,1007.00
2018-09-17T07:44:47.012Z,1007.01
2018-09-17T07:45:47.018Z,1007.01
2018-09-17T07:46:46.998Z,1007.05
2018-09-17T07:47:47.052Z,1007.07
2018-09-17T07:48:46.984Z,1007.07
2018-09-17T07:49:46.968Z,1007.09
2018-09-17T07:50:46.990Z,1007.09
2018-09-17T07:51:46.931Z,1007.04
2018-09-17T07:52:46.973Z,1007.10
2018-09-17T07:53:46.924Z,1007.10
2018-09-17T07:54:46.905Z,1007.09
2018-09-17T07:55:46.947Z,1007.14
2018-09-17T07:56:46.881Z,1007.09
2018-09-17T07:57:46.890Z,1007.11
2018-09-17T07:58:46.867Z,1007.13
2018-09-17T07:59:46.855Z,1007.10
2018-09-17T08:00:46.851Z,1007.16
2018-09-17T08:01:46.887Z,1007.13
2018-09-17T08:02:46.817Z,1007.14
2018-09-17T08:03:46.806Z,1007.14
2018-09-17T08:04:46.801Z,1007.17
2018-09-17T08:05:46.855Z,1007.14
2018-09-17T08:06:46.776Z,1007.16
2018-09-17T08:07:46.794Z,1007.16
2018-09-17T08:08:46.778Z,1007.16
2018-09-17T08:09:46.734Z,1007.17
2018-09-17T08:10:46.743Z,1007.16
2018-09-17T08:11:46.713Z,1007.13
2018-09-17T08:12:46.713Z,1007.13
2018-09-17T08:13:46.732Z,1007.10
2018-09-17T08:14:46.688Z,1007.10
2018-09-17T08:15:46.668Z,1007.12
2018-09-17T08:16:46.664Z,1007.12
2018-09-17T08:17:46.656Z,1007.09
2018-09-17T08:18:46.910Z,1007.10
2018-09-17T08:19:46.698Z,1007.05
2018-09-17T08:20:46.630Z,1007.05
2018-09-17T08:21:46.623Z,1007.01
2018-09-17T08:22:46.600Z,1007.00
2018-09-17T08:23:46.599Z,1006.97
2018-09-17T08:24:46.586Z,1007.00
2018-09-17T08:25:46.568Z,1006.97
2018-09-17T08:26:46.559Z,1006.96
2018-09-17T08:27:46.550Z,1006.96
2018-09-17T08:28:46.540Z,1006.98
2018-09-17T08:29:46.556Z,1006.99
2018-09-17T08:30:46.509Z,1006.96
2018-09-17T08:31:46.514Z,1006.91
2018-09-17T08:32:46.492Z,1006.90
2018-09-17T08:33:46.488Z,1006.92
2018-09-17T08:34:46.488Z,1006.89
2018-09-17T08:35:46.458Z,1006.91
2018-09-17T08:36:46.476Z,1006.86
2018-09-17T08:37:46.442Z,1006.81
2018-09-17T08:38:46.427Z,1006.84
2018-09-17T08:39:46.419Z,1006.88
2018-09-17T08:40:46.408Z,1006.85
2018-09-17T08:41:46.401Z,1006.84
2018-09-17T08:42:46.394Z,1006.87
2018-09-17T08:43:46.380Z,1006.85
2018-09-17T08:44:46.363Z,1006.83
2018-09-17T08:45:46.362Z,1006.86
2018-09-17T08:46:46.387Z,1006.89
2018-09-17T08:47:46.366Z,1006.87
2018-09-17T08:48:46.360Z,1006.89
2018-09-17T08:49:46.308Z,1006.90
2018-09-17T08:50:46.299Z,1006.88
2018-09-17T08:51:46.289Z,1006.87
2018-09-17T08:52:46.372Z,1006.88
2018-09-17T08:53:46.352Z,1006.87
2018-09-17T08:54:46.270Z,1006.90
2018-09-17T08:55:46.263Z,1006.88
2018-09-17T08:56:46.239Z,1006.89
2018-09-17T08:57:46.240Z,1006.89
2018-09-17T08:58:46.228Z,1006.93
2018-09-17T08:59:46.265Z,1006.94
2018-09-17T09:00:46.205Z,1006.97
2018-09-17T09:01:46.200Z,1006.97
2018-09-17T09:02:46.195Z,1006.95
2018-09-17T09:03:46.177Z,1006.94
2018-09-17T09:04:46.170Z,1006.98
2018-09-17T09:05:46.216Z,1006.96
2018-09-17T09:06:46.149Z,1006.95
2018-09-17T09:07:46.141Z,1007.00
2018-09-17T09:08:46.135Z,1006.96
2018-09-17T09:09:46.126Z,1007.00
2018-09-17T09:10:46.111Z,1006.99
2018-09-17T09:11:46.112Z,1006.99
2018-09-17T09:12:46.095Z,1006.95
2018-09-17T09:13:46.084Z,1006.95
2018-09-17T09:14:46.073Z,1006.95
2018-09-17T09:15:46.062Z,1006.93
2018-09-17T09:16:46.064Z,1006.94
2018-09-17T09:17:46.052Z,1006.94
2018-09-17T09:18:46.035Z,1006.95
2018-09-17T09:19:46.029Z,1006.94
2018-09-17T09:20:46.021Z,1006.97
2018-09-17T09:21:46.050Z,1006.98
2018-09-17T09:22:45.996Z,1006.98
2018-09-17T09:23:45.983Z,1006.96
2018-09-17T09:24:45.982Z,1006.96
2018-09-17T09:25:45.975Z,1006.94
2018-09-17T09:26:45.973Z,1006.95
2018-09-17T09:27:45.952Z,1006.98
2018-09-17T09:28:46.138Z,1006.97
2018-09-17T09:29:45.944Z,1007.00
2018-09-17T09:30:45.957Z,1006.95
2018-09-17T09:31:45.930Z,1007.01
2018-09-17T09:32:45.909Z,1006.96
2018-09-17T09:33:45.898Z,1006.96
2018-09-17T09:34:45.904Z,1006.97
2018-09-17T09:35:45.888Z,1006.92
2018-09-17T09:36:45.879Z,1006.92
2018-09-17T09:37:45.870Z,1006.95
2018-09-17T09:38:45.899Z,1006.90
2018-09-17T09:39:45.848Z,1006.90
2018-09-17T09:40:45.842Z,1006.93
2018-09-17T09:41:45.838Z,1006.89
2018-09-17T09:42:45.824Z,1006.89
2018-09-17T09:43:45.830Z,1006.92
2018-09-17T09:44:45.811Z,1006.90
2018-09-17T09:45:45.789Z,1006.87
2018-09-17T09:46:45.795Z,1006.85
2018-09-17T09:47:45.787Z,1006.82
2018-09-17T09:48:45.771Z,1006.81
2018-09-17T09:49:45.804Z,1006.84
2018-09-17T09:50:45.755Z,1006.81
2018-09-17T09:51:45.748Z,1006.84
2018-09-17T09:52:45.791Z,1006.85
2018-09-17T09:53:45.747Z,1006.86
2018-09-17T09:54:45.726Z,1006.84
2018-09-17T09:55:45.715Z,1006.82
2018-09-17T09:56:45.708Z,1006.89
2018-09-17T09:57:45.704Z,1006.87
2018-09-17T09:58:45.762Z,1006.87
2018-09-17T09:59:45.678Z,1006.86
2018-09-17T10:00:45.676Z,1006.82
2018-09-17T10:01:45.679Z,1006.83
2018-09-17T10:02:45.649Z,1006.82
2018-09-17T10:03:45.639Z,1006.78
2018-09-17T10:04:45.672Z,1006.82
2018-09-17T10:05:45.669Z,1006.76
2018-09-17T10:06:45.629Z,1006.74
2018-09-17T10:07:45.613Z,1006.78
2018-09-17T10:08:45.598Z,1006.75
2018-09-17T10:09:45.639Z,1006.74
2018-09-17T10:10:45.596Z,1006.74
2018-09-17T10:11:45.592Z,1006.71
2018-09-17T10:12:45.569Z,1006.73
2018-09-17T10:13:45.567Z,1006.74
2018-09-17T10:14:45.625Z,1006.72
2018-09-17T10:15:45.553Z,1006.75
2018-09-17T10:16:45.550Z,1006.70
2018-09-17T10:17:45.528Z,1006.72
2018-09-17T10:18:45.533Z,1006.72
2018-09-17T10:19:45.524Z,1006.71
2018-09-17T10:20:45.546Z,1006.72
2018-09-17T10:21:45.503Z,1006.69
2018-09-17T10:22:45.492Z,1006.68
2018-09-17T10:23:45.489Z,1006.68
2018-09-17T10:24:45.529Z,1006.67
2018-09-17T10:25:45.463Z,1006.69
2018-09-17T10:26:45.476Z,1006.67
2018-09-17T10:27:45.459Z,1006.66
2018-09-17T10:28:45.450Z,1006.67
2018-09-17T10:29:45.442Z,1006.63
2018-09-17T10:30:45.460Z,1006.64
2018-09-17T10:31:45.423Z,1006.64
2018-09-17T10:32:45.447Z,1006.61
2018-09-17T10:33:45.414Z,1006.61
2018-09-17T10:34:45.403Z,1006.60
2018-09-17T10:35:45.395Z,1006.59
2018-09-17T10:36:45.391Z,1006.59
2018-09-17T10:37:45.409Z,1006.54
2018-09-17T10:38:45.375Z,1006.56
2018-09-17T10:39:45.364Z,1006.55
2018-09-17T10:40:45.355Z,1006.52
2018-09-17T10:41:45.341Z,1006.55
2018-09-17T10:42:45.362Z,1006.54
2018-09-17T10:43:45.332Z,1006.47
2018-09-17T10:44:45.311Z,1006.51
2018-09-17T10:45:45.320Z,1006.48
2018-09-17T10:46:45.301Z,1006.51
2018-09-17T10:47:45.322Z,1006.50
2018-09-17T10:48:45.282Z,1006.53
2018-09-17T10:49:45.323Z,1006.49
2018-09-17T10:50:45.279Z,1006.48
2018-09-17T10:51:45.269Z,1006.53
2018-09-17T10:52:45.259Z,1006.50
2018-09-17T10:53:45.248Z,1006.53
2018-09-17T10:54:45.274Z,1006.49
2018-09-17T10:55:45.236Z,1006.51
2018-09-17T10:56:45.234Z,1006.54
2018-09-17T10:57:45.249Z,1006.55
2018-09-17T10:58:45.218Z,1006.51
2018-09-17T10:59:45.201Z,1006.53
2018-09-17T11:00:45.202Z,1006.48
2018-09-17T11:01:45.258Z,1006.49
2018-09-17T11:02:45.175Z,1006.46
2018-09-17T11:03:45.177Z,1006.47
2018-09-17T11:04:45.163Z,1006.48
2018-09-17T11:05:45.161Z,1006.46
2018-09-17T11:06:45.161Z,1006.40
2018-09-17T11:07:45.185Z,1006.42
2018-09-17T11:08:45.139Z,1006.41
2018-09-17T11:09:45.128Z,1006.34
2018-09-17T11:10:45.129Z,1006.32
2018-09-17T11:11:45.114Z,1006.34
2018-09-17T11:12:45.139Z,1006.32
2018-09-17T11:13:45.117Z,1006.35
2018-09-17T11:14:45.125Z,1006.31
2018-09-17T11:15:45.091Z,1006.27
2018-09-17T11:16:45.080Z,1006.29
2018-09-17T11:17:45.147Z,1006.23
2018-09-17T11:18:45.097Z,1006.30
2018-09-17T11:19:45.087Z,1006.23
2018-09-17T11:20:45.050Z,1006.25
2018-09-17T11:21:45.040Z,1006.25
2018-09-17T11:22:45.037Z,1006.25
2018-09-17T11:23:45.022Z,1006.23
2018-09-17T11:24:45.076Z,1006.23
2018-09-17T11:25:45.018Z,1006.22
2018-09-17T11:26:45.019Z,1006.21
2018-09-17T11:27:45.000Z,1006.21
2018-09-17T11:28:44.994Z,1006.23
2018-09-17T11:29:44.991Z,1006.27
2018-09-17T11:30:45.005Z,1006.25
2018-09-17T11:31:44.974Z,1006.24
2018-09-17T11:32:44.970Z,1006.23
2018-09-17T11:33:44.957Z,1006.26
2018-09-17T11:34:44.980Z,1006.25
2018-09-17T11:35:44.941Z,1006.25
2018-09-17T11:36:44.965Z,1006.26
2018-09-17T11:37:44.935Z,1006.24
2018-09-17T11:38:44.908Z,1006.28
2018-09-17T11:39:45.888Z,1006.28
2018-09-17T11:40:44.934Z,1006.23
2018-09-17T11:41:44.906Z,1006.20
2018-09-17T11:42:44.900Z,1006.18
2018-09-17T11:43:44.888Z,1006.16
2018-09-17T11:44:44.879Z,1006.14
2018-09-17T11:45:44.868Z,1006.19
2018-09-17T11:46:44.860Z,1006.19
2018-09-17T11:47:44.857Z,1006.18
2018-09-17T11:48:44.852Z,1006.24
2018-09-17T11:49:44.851Z,1006.17
2018-09-17T11:50:44.837Z,1006.24
2018-09-17T11:51:44.893Z,1006.21
2018-09-17T11:52:44.811Z,1006.22
2018-09-17T11:53:44.809Z,1006.19
2018-09-17T11:54:44.803Z,1006.24
2018-09-17T11:55:44.797Z,1006.22
2018-09-17T11:56:44.798Z,1006.18
2018-09-17T11:57:44.829Z,1006.16
2018-09-17T11:58:44.772Z,1006.22
2018-09-17T11:59:44.782Z,1006.41
2018-09-17T12:00:44.763Z,1006.40
2018-09-17T12:01:44.812Z,1006.40
2018-09-17T12:02:44.811Z,1006.43
2018-09-17T12:03:44.756Z,1006.35
2018-09-17T12:04:44.746Z,1006.25
2018-09-17T12:05:44.737Z,1006.14